createdAt,value
2022-09-25T00:29:27.314Z,1004.33
2022-09-25T00:30:07.717Z,1004.33
2022-09-25T00:30:48.358Z,1004.3
2022-09-25T00:31:28.779Z,1004.33
2022-09-25T00:32:09.294Z,1004.33
2022-09-25T00:32:49.835Z,1004.33
2022-09-25T00:33:30.566Z,1004.27
2022-09-25T00:34:10.995Z,1004.33
2022-09-25T00:34:51.374Z,1004.29
2022-09-25T00:35:31.856Z,1004.26
2022-09-25T00:36:12.307Z,1004.3
2022-09-25T00:36:53.024Z,1004.3
2022-09-25T00:37:33.354Z,1004.28
2022-09-25T00:38:54.375Z,1004.31
2022-09-25T00:39:34.872Z,1004.28
2022-09-25T00:40:15.311Z,1004.3
2022-09-25T00:40:55.899Z,1004.29
2022-09-25T00:41:36.329Z,1004.26
2022-09-25T00:42:16.819Z,1004.26
2022-09-25T00:42:57.339Z,1004.29
2022-09-25T00:43:37.883Z,1004.32
2022-09-25T00:44:18.494Z,1004.28
2022-09-25T00:44:59.007Z,1004.26
2022-09-25T00:45:40.118Z,1004.25
2022-09-25T00:46:20.004Z,1004.26
2022-09-25T00:47:00.454Z,1004.24
2022-09-25T00:47:41.134Z,1004.27
2022-09-25T00:49:02.098Z,1004.26
2022-09-25T00:49:42.629Z,1004.3
2022-09-25T00:50:23.123Z,1004.27
2022-09-25T00:51:03.842Z,1004.28
2022-09-25T00:51:44.332Z,1004.3
2022-09-25T00:54:38.381Z,1004.3
2022-09-25T00:55:18.795Z,1004.35
2022-09-25T00:55:59.228Z,1004.31
2022-09-25T00:56:39.929Z,1004.32
2022-09-25T00:57:20.478Z,1004.33
2022-09-25T00:58:00.905Z,1004.35
2022-09-25T00:58:41.386Z,1004.31
2022-09-25T00:59:21.884Z,1004.31
2022-09-25T01:00:02.387Z,1004.28
2022-09-25T01:00:43.011Z,1004.32
2022-09-25T01:01:23.457Z,1004.31
2022-09-25T01:02:03.964Z,1004.31
2022-09-25T01:02:44.356Z,1004.34
2022-09-25T01:04:06.355Z,1004.31
2022-09-25T01:04:45.808Z,1004.34
2022-09-25T01:07:44.582Z,1004.29
2022-09-25T01:08:25.259Z,1004.3
2022-09-25T01:09:05.686Z,1004.32
2022-09-25T01:09:46.128Z,1004.32
2022-09-25T01:10:26.640Z,1004.32
2022-09-25T01:11:07.172Z,1004.32
2022-09-25T01:11:47.651Z,1004.31
2022-09-25T01:12:28.155Z,1004.36
2022-09-25T01:13:08.710Z,1004.32
2022-09-25T01:13:49.086Z,1004.31
2022-09-25T01:17:03.607Z,1004.33
2022-09-25T01:17:44.110Z,1004.33
2022-09-25T01:18:24.455Z,1004.32
2022-09-25T01:19:04.938Z,1004.28
2022-09-25T01:19:45.495Z,1004.29
2022-09-25T01:20:26.052Z,1004.3
2022-09-25T01:21:06.493Z,1004.26
2022-09-25T01:21:46.974Z,1004.29
2022-09-25T01:22:27.500Z,1004.32
2022-09-25T01:23:08.102Z,1004.3
2022-09-25T01:23:48.605Z,1004.26
2022-09-25T01:24:29.068Z,1004.28
2022-09-25T01:25:09.533Z,1004.31
2022-09-25T01:25:50.007Z,1004.29
2022-09-25T01:26:30.499Z,1004.27
2022-09-25T01:27:10.968Z,1004.3
2022-09-25T01:27:51.438Z,1004.3
2022-09-25T01:28:31.945Z,1004.29
2022-09-25T01:29:12.428Z,1004.28
2022-09-25T01:29:53.834Z,1004.29
2022-09-25T01:30:35.013Z,1004.32
2022-09-25T01:31:15.520Z,1004.3
2022-09-25T01:31:55.981Z,1004.29
2022-09-25T01:32:36.590Z,1004.3
2022-09-25T01:33:17.005Z,1004.31
2022-09-25T01:33:57.528Z,1004.36
2022-09-25T01:34:37.986Z,1004.34
2022-09-25T01:35:18.502Z,1004.35
2022-09-25T01:35:59.016Z,1004.34
2022-09-25T01:36:39.509Z,1004.32
2022-09-25T01:37:20.057Z,1004.33
2022-09-25T01:38:00.572Z,1004.31
2022-09-25T01:38:40.945Z,1004.35
2022-09-25T01:39:21.438Z,1004.34
2022-09-25T01:40:01.926Z,1004.36
2022-09-25T01:40:42.409Z,1004.35
2022-09-25T01:41:22.884Z,1004.31
2022-09-25T01:42:03.381Z,1004.32
2022-09-25T01:42:43.954Z,1004.31
2022-09-25T01:43:24.418Z,1004.31
2022-09-25T01:44:04.866Z,1004.31
2022-09-25T01:44:45.335Z,1004.3
2022-09-25T01:45:25.819Z,1004.33
2022-09-25T01:46:46.815Z,1004.32
2022-09-25T01:47:27.316Z,1004.34
2022-09-25T01:48:07.876Z,1004.32
2022-09-25T01:48:48.295Z,1004.37
2022-09-25T01:49:28.829Z,1004.38
2022-09-25T01:50:09.243Z,1004.36
2022-09-25T01:50:49.710Z,1004.36
2022-09-25T01:51:30.569Z,1004.35
2022-09-25T01:52:11.080Z,1004.32
2022-09-25T01:52:51.540Z,1004.34
2022-09-25T01:53:32.012Z,1004.36
2022-09-25T01:54:12.560Z,1004.39
2022-09-25T01:54:52.943Z,1004.35
2022-09-25T01:55:33.440Z,1004.38
2022-09-25T01:56:13.937Z,1004.35
2022-09-25T01:56:54.436Z,1004.39
2022-09-25T01:57:34.920Z,1004.37
2022-09-25T01:58:15.389Z,1004.36
2022-09-25T01:59:36.360Z,1004.4
2022-09-25T02:00:16.876Z,1004.38
2022-09-25T02:00:57.406Z,1004.39
2022-09-25T02:02:18.336Z,1004.37
2022-09-25T02:02:58.788Z,1004.37
2022-09-25T02:03:39.297Z,1004.34
2022-09-25T02:04:19.698Z,1004.38
2022-09-25T02:05:00.188Z,1004.37
2022-09-25T02:05:40.676Z,1004.35
2022-09-25T02:06:21.135Z,1004.36
2022-09-25T02:07:01.586Z,1004.33
2022-09-25T02:07:42.123Z,1004.34
2022-09-25T02:08:22.596Z,1004.32
2022-09-25T02:09:43.499Z,1004.34
2022-09-25T02:10:23.953Z,1004.31
2022-09-25T02:11:04.479Z,1004.3
2022-09-25T02:12:25.498Z,1004.3
2022-09-25T02:13:05.931Z,1004.32
2022-09-25T02:13:46.434Z,1004.3
2022-09-25T02:14:26.950Z,1004.32
2022-09-25T02:15:07.433Z,1004.32
2022-09-25T02:15:47.925Z,1004.31
2022-09-25T02:16:28.429Z,1004.32
2022-09-25T02:17:08.878Z,1004.33
2022-09-25T02:17:49.339Z,1004.32
2022-09-25T02:18:29.895Z,1004.35
2022-09-25T02:19:10.505Z,1004.34
2022-09-25T02:19:51.023Z,1004.33
2022-09-25T02:20:31.496Z,1004.35
2022-09-25T02:21:11.967Z,1004.33
2022-09-25T02:21:52.453Z,1004.36
2022-09-25T02:22:32.937Z,1004.33
2022-09-25T02:23:13.374Z,1004.36
2022-09-25T02:23:53.857Z,1004.39
2022-09-25T02:24:34.388Z,1004.39
2022-09-25T02:25:14.817Z,1004.4
2022-09-25T02:25:55.354Z,1004.34
2022-09-25T02:26:35.809Z,1004.38
2022-09-25T02:27:56.804Z,1004.4
2022-09-25T02:28:37.277Z,1004.39
2022-09-25T02:29:17.799Z,1004.4
2022-09-25T02:29:58.243Z,1004.36
2022-09-25T02:30:38.803Z,1004.38
2022-09-25T02:31:19.284Z,1004.39
2022-09-25T02:31:59.757Z,1004.42
2022-09-25T02:32:40.260Z,1004.42
2022-09-25T02:33:20.685Z,1004.39
2022-09-25T02:34:01.164Z,1004.39
2022-09-25T02:34:41.674Z,1004.41
2022-09-25T02:35:22.111Z,1004.38
2022-09-25T02:36:02.591Z,1004.43
2022-09-25T02:39:21.390Z,1004.4
2022-09-25T02:40:02.080Z,1004.41
2022-09-25T02:40:42.519Z,1004.43
2022-09-25T02:41:22.909Z,1004.41
2022-09-25T02:42:03.413Z,1004.45
2022-09-25T02:42:43.898Z,1004.43
2022-09-25T02:46:13.124Z,1004.45
2022-09-25T02:46:53.761Z,1004.45
2022-09-25T02:47:34.228Z,1004.47
2022-09-25T02:48:14.695Z,1004.45
2022-09-25T02:48:55.176Z,1004.44
2022-09-25T02:49:35.638Z,1004.45
2022-09-25T02:50:16.160Z,1004.41
2022-09-25T02:50:56.708Z,1004.42
2022-09-25T02:51:37.127Z,1004.4
2022-09-25T02:52:17.580Z,1004.41
2022-09-25T02:53:38.540Z,1004.35
2022-09-25T02:54:19.000Z,1004.37
2022-09-25T02:54:59.559Z,1004.34
2022-09-25T02:55:40.010Z,1004.32
2022-09-25T02:56:20.490Z,1004.35
2022-09-25T02:57:03.884Z,1004.31
2022-09-25T02:57:41.446Z,1004.38
2022-09-25T02:58:21.928Z,1004.35
2022-09-25T02:59:02.389Z,1004.28
2022-09-25T02:59:42.882Z,1004.34
2022-09-25T03:00:23.351Z,1004.31
2022-09-25T03:01:03.888Z,1004.38
2022-09-25T03:01:44.410Z,1004.34
2022-09-25T03:02:24.819Z,1004.35
2022-09-25T03:03:45.766Z,1004.34
2022-09-25T03:04:26.266Z,1004.33
2022-09-25T03:05:06.756Z,1004.36
2022-09-25T03:05:47.238Z,1004.36
2022-09-25T03:06:27.701Z,1004.39
2022-09-25T03:07:08.178Z,1004.36
2022-09-25T03:07:48.702Z,1004.37
2022-09-25T03:08:29.238Z,1004.38
2022-09-25T03:09:09.774Z,1004.37
2022-09-25T03:09:50.198Z,1004.35
2022-09-25T03:10:30.682Z,1004.36
2022-09-25T03:11:11.153Z,1004.38
2022-09-25T03:11:51.589Z,1004.44
2022-09-25T03:12:32.130Z,1004.4
2022-09-25T03:13:12.545Z,1004.41
2022-09-25T03:13:53.061Z,1004.42
2022-09-25T03:14:33.526Z,1004.42
2022-09-25T03:15:14.028Z,1004.42
2022-09-25T03:16:35.070Z,1004.41
2022-09-25T03:17:15.484Z,1004.43
2022-09-25T03:17:55.918Z,1004.42
2022-09-25T03:18:36.472Z,1004.41
2022-09-25T03:19:16.899Z,1004.43
2022-09-25T03:19:57.379Z,1004.42
2022-09-25T03:20:37.926Z,1004.4
2022-09-25T03:21:18.431Z,1004.44
2022-09-25T03:21:58.899Z,1004.42
2022-09-25T03:22:39.412Z,1004.43
2022-09-25T03:23:19.867Z,1004.4
2022-09-25T03:24:00.354Z,1004.42
2022-09-25T03:24:40.831Z,1004.45
2022-09-25T03:25:21.367Z,1004.48
2022-09-25T03:26:01.949Z,1004.45
2022-09-25T03:26:42.372Z,1004.47
2022-09-25T03:27:22.832Z,1004.48
2022-09-25T03:28:03.312Z,1004.46
2022-09-25T03:28:43.780Z,1004.51
2022-09-25T03:29:24.302Z,1004.47
2022-09-25T03:30:04.851Z,1004.49
2022-09-25T03:30:45.344Z,1004.47
2022-09-25T03:31:25.785Z,1004.44
2022-09-25T03:32:06.197Z,1004.48
2022-09-25T03:32:46.723Z,1004.49
2022-09-25T03:33:27.153Z,1004.5
2022-09-25T03:34:07.613Z,1004.47
2022-09-25T03:34:48.103Z,1004.45
2022-09-25T03:35:28.713Z,1004.5
2022-09-25T03:36:09.082Z,1004.49
2022-09-25T03:36:49.550Z,1004.49
2022-09-25T03:37:30.043Z,1004.51
2022-09-25T03:38:10.569Z,1004.49
2022-09-25T03:38:51.972Z,1004.44
2022-09-25T03:39:32.393Z,1004.48
2022-09-25T03:40:12.919Z,1004.47
2022-09-25T03:40:53.455Z,1004.47
2022-09-25T03:41:33.845Z,1004.44
2022-09-25T03:42:14.325Z,1004.47
2022-09-25T03:42:54.802Z,1004.48
2022-09-25T03:45:53.638Z,1004.5
2022-09-25T03:46:34.134Z,1004.51
2022-09-25T03:47:14.524Z,1004.43
2022-09-25T03:47:55.037Z,1004.5
2022-09-25T03:48:35.502Z,1004.5
2022-09-25T03:49:16.010Z,1004.53
2022-09-25T03:49:56.506Z,1004.49
2022-09-25T03:50:37.010Z,1004.53
2022-09-25T03:51:58.138Z,1004.53
2022-09-25T03:52:38.441Z,1004.54
2022-09-25T03:53:18.915Z,1004.53
2022-09-25T03:53:59.376Z,1004.54
2022-09-25T03:54:39.914Z,1004.51
2022-09-25T03:55:20.375Z,1004.5
2022-09-25T03:56:00.921Z,1004.52
2022-09-25T03:56:41.380Z,1004.51
2022-09-25T03:57:21.811Z,1004.48
2022-09-25T03:58:02.224Z,1004.52
2022-09-25T03:58:42.699Z,1004.53
2022-09-25T03:59:23.169Z,1004.55
2022-09-25T04:00:03.800Z,1004.51
2022-09-25T04:00:44.412Z,1004.57
2022-09-25T04:02:05.513Z,1004.49
2022-09-25T04:02:45.965Z,1004.53
2022-09-25T04:03:26.372Z,1004.47
2022-09-25T04:04:06.941Z,1004.53
2022-09-25T04:04:47.362Z,1004.53
2022-09-25T04:05:27.887Z,1004.53
2022-09-25T04:06:08.330Z,1004.55
2022-09-25T04:06:48.798Z,1004.56
2022-09-25T04:07:29.377Z,1004.54
2022-09-25T04:08:09.782Z,1004.52
2022-09-25T04:08:50.223Z,1004.48
2022-09-25T04:09:30.730Z,1004.54
2022-09-25T04:10:11.234Z,1004.56
2022-09-25T04:10:51.741Z,1004.56
2022-09-25T04:11:32.238Z,1004.54
2022-09-25T04:12:12.710Z,1004.56
2022-09-25T04:12:53.227Z,1004.51
2022-09-25T04:13:33.663Z,1004.53
2022-09-25T04:14:14.132Z,1004.53
2022-09-25T04:14:54.605Z,1004.51
2022-09-25T04:15:35.098Z,1004.52
2022-09-25T04:16:15.629Z,1004.53
2022-09-25T04:16:56.075Z,1004.54
2022-09-25T04:17:36.552Z,1004.49
2022-09-25T04:18:17.051Z,1004.53
2022-09-25T04:18:57.498Z,1004.52
2022-09-25T04:19:38.058Z,1004.52
2022-09-25T04:20:18.501Z,1004.49
2022-09-25T04:20:58.948Z,1004.51
2022-09-25T04:21:39.478Z,1004.52
2022-09-25T04:22:19.930Z,1004.52
2022-09-25T04:23:00.497Z,1004.49
2022-09-25T04:23:40.865Z,1004.5
2022-09-25T04:24:21.344Z,1004.5
2022-09-25T04:25:01.816Z,1004.49
2022-09-25T04:25:42.350Z,1004.5
2022-09-25T04:26:22.764Z,1004.53
2022-09-25T04:27:03.217Z,1004.51
2022-09-25T04:27:43.777Z,1004.5
2022-09-25T04:28:24.239Z,1004.49
2022-09-25T04:29:04.711Z,1004.5
2022-09-25T04:29:45.952Z,1004.52
2022-09-25T04:30:26.040Z,1004.51
2022-09-25T04:31:06.573Z,1004.49
2022-09-25T04:31:47.020Z,1004.5
2022-09-25T04:32:27.468Z,1004.53
2022-09-25T04:33:07.971Z,1004.57
2022-09-25T04:33:48.599Z,1004.54
2022-09-25T04:34:28.931Z,1004.51
2022-09-25T04:35:09.385Z,1004.53
2022-09-25T04:35:49.848Z,1004.57
2022-09-25T04:36:30.344Z,1004.51
2022-09-25T04:37:10.837Z,1004.53
2022-09-25T04:37:51.340Z,1004.54
2022-09-25T04:38:31.828Z,1004.49
2022-09-25T04:39:12.239Z,1004.5
2022-09-25T04:39:52.714Z,1004.51
2022-09-25T04:40:33.250Z,1004.53
2022-09-25T04:41:13.691Z,1004.51
2022-09-25T04:41:54.176Z,1004.54
2022-09-25T04:42:34.707Z,1004.53
2022-09-25T04:43:15.174Z,1004.57
2022-09-25T04:43:55.604Z,1004.57
2022-09-25T04:45:16.554Z,1004.59
2022-09-25T04:45:57.092Z,1004.58
2022-09-25T04:46:37.614Z,1004.57
2022-09-25T04:47:18.027Z,1004.62
2022-09-25T04:47:58.525Z,1004.61
2022-09-25T04:48:38.967Z,1004.61
2022-09-25T04:49:19.470Z,1004.59
2022-09-25T04:49:59.914Z,1004.57
2022-09-25T04:50:40.365Z,1004.6
2022-09-25T04:51:20.816Z,1004.63
2022-09-25T04:52:01.301Z,1004.57
2022-09-25T04:52:41.890Z,1004.59
2022-09-25T04:53:22.285Z,1004.61
2022-09-25T04:54:02.777Z,1004.58
2022-09-25T04:54:43.251Z,1004.61
2022-09-25T04:55:23.724Z,1004.61
2022-09-25T04:56:04.296Z,1004.61
2022-09-25T04:56:44.762Z,1004.62
2022-09-25T04:57:45.964Z,1004.62
2022-09-25T04:58:05.670Z,1004.68
2022-09-25T04:58:46.222Z,1004.62
2022-09-25T04:59:26.655Z,1004.64
2022-09-25T05:00:07.186Z,1004.65
2022-09-25T05:00:47.687Z,1004.64
2022-09-25T05:01:28.123Z,1004.65
2022-09-25T05:02:08.579Z,1004.63
2022-09-25T05:02:49.291Z,1004.59
2022-09-25T05:03:29.572Z,1004.63
2022-09-25T05:04:10.204Z,1004.59
2022-09-25T05:04:50.523Z,1004.6
2022-09-25T05:05:30.984Z,1004.6
2022-09-25T05:06:11.484Z,1004.64
2022-09-25T05:06:51.944Z,1004.65
2022-09-25T05:07:32.389Z,1004.66
2022-09-25T05:08:12.859Z,1004.64
2022-09-25T05:08:53.371Z,1004.59
2022-09-25T05:09:33.980Z,1004.63
2022-09-25T05:10:14.387Z,1004.63
2022-09-25T05:13:13.037Z,1004.64
2022-09-25T05:13:53.448Z,1004.62
2022-09-25T05:14:33.913Z,1004.64
2022-09-25T05:15:14.440Z,1004.63
2022-09-25T05:15:54.971Z,1004.6
2022-09-25T05:16:35.443Z,1004.64
2022-09-25T05:17:15.879Z,1004.66
2022-09-25T05:17:56.394Z,1004.62
2022-09-25T05:18:36.818Z,1004.68
2022-09-25T05:19:17.323Z,1004.65
2022-09-25T05:19:57.785Z,1004.68
2022-09-25T05:20:38.253Z,1004.68
2022-09-25T05:21:18.776Z,1004.67
2022-09-25T05:21:59.255Z,1004.68
2022-09-25T05:22:39.733Z,1004.65
2022-09-25T05:23:20.221Z,1004.66
2022-09-25T05:24:00.683Z,1004.64
2022-09-25T05:25:21.623Z,1004.64
2022-09-25T05:26:02.255Z,1004.68
2022-09-25T05:26:42.565Z,1004.71
2022-09-25T05:27:23.160Z,1004.74
2022-09-25T05:28:03.645Z,1004.68
2022-09-25T05:28:44.114Z,1004.68
2022-09-25T05:29:24.625Z,1004.73
2022-09-25T05:30:05.121Z,1004.75
2022-09-25T05:30:45.566Z,1004.71
2022-09-25T05:31:26.107Z,1004.72
2022-09-25T05:32:06.554Z,1004.72
2022-09-25T05:32:47.040Z,1004.69
2022-09-25T05:33:27.513Z,1004.7
2022-09-25T05:34:08.043Z,1004.69
2022-09-25T05:34:48.475Z,1004.7
2022-09-25T05:35:29.017Z,1004.69
2022-09-25T05:36:09.435Z,1004.7
2022-09-25T05:36:49.893Z,1004.73
2022-09-25T05:37:30.336Z,1004.66
2022-09-25T05:38:10.814Z,1004.71
2022-09-25T05:38:51.338Z,1004.69
2022-09-25T05:39:31.786Z,1004.72
2022-09-25T05:40:12.261Z,1004.68
2022-09-25T05:40:52.788Z,1004.69
2022-09-25T05:41:33.214Z,1004.71
2022-09-25T05:42:54.107Z,1004.7
2022-09-25T05:43:34.665Z,1004.67
2022-09-25T05:44:15.093Z,1004.72
2022-09-25T05:44:55.543Z,1004.72
2022-09-25T05:45:36.070Z,1004.68
2022-09-25T05:46:16.597Z,1004.67
2022-09-25T05:46:56.985Z,1004.68
2022-09-25T05:47:37.486Z,1004.69
2022-09-25T05:48:17.904Z,1004.7
2022-09-25T05:48:58.384Z,1004.67
2022-09-25T05:50:19.332Z,1004.73
2022-09-25T05:50:59.833Z,1004.69
2022-09-25T05:51:40.378Z,1004.72
2022-09-25T05:52:20.773Z,1004.68
2022-09-25T05:53:01.262Z,1004.67
2022-09-25T05:53:41.795Z,1004.7
2022-09-25T05:54:22.232Z,1004.73
2022-09-25T06:31:51.527Z,1004.92
2022-09-25T06:32:32.004Z,1004.9
2022-09-25T06:33:12.489Z,1004.95
2022-09-25T06:33:53.020Z,1004.91
2022-09-25T06:34:33.496Z,1004.89
2022-09-25T06:35:14.027Z,1004.96
2022-09-25T06:36:34.920Z,1004.99
2022-09-25T06:37:15.386Z,1004.98
2022-09-25T06:37:55.849Z,1004.94
2022-09-25T06:38:36.336Z,1004.96
2022-09-25T06:39:16.808Z,1004.99
2022-09-25T06:39:57.321Z,1004.99
2022-09-25T06:40:37.868Z,1004.98
2022-09-25T06:41:18.352Z,1005.02
2022-09-25T06:41:58.779Z,1004.99
2022-09-25T06:42:39.268Z,1004.98
2022-09-25T06:44:00.304Z,1005.01
2022-09-25T06:44:40.777Z,1005.03
2022-09-25T06:45:21.266Z,1005.03
2022-09-25T06:46:01.823Z,1005.05
2022-09-25T06:46:42.364Z,1005.03
2022-09-25T06:47:26.693Z,1005.02
2022-09-25T06:48:03.264Z,1005.03
2022-09-25T06:48:43.751Z,1005.07
2022-09-25T06:49:24.225Z,1005.08
2022-09-25T06:50:04.701Z,1005.13
2022-09-25T06:50:45.223Z,1005.14
2022-09-25T06:51:25.701Z,1005.17
2022-09-25T06:52:06.171Z,1005.16
2022-09-25T06:52:46.679Z,1005.16
2022-09-25T06:53:27.173Z,1005.16
2022-09-25T06:54:07.640Z,1005.13
2022-09-25T06:54:48.167Z,1005.21
2022-09-25T06:55:28.676Z,1005.22
2022-09-25T06:56:09.627Z,1005.16
2022-09-25T06:56:50.178Z,1005.22
2022-09-25T06:57:30.677Z,1005.2
2022-09-25T06:58:11.166Z,1005.2
2022-09-25T06:58:51.655Z,1005.18
2022-09-25T06:59:32.167Z,1005.19
2022-09-25T07:00:12.652Z,1005.22
2022-09-25T07:00:53.204Z,1005.25
2022-09-25T07:01:33.728Z,1005.23
2022-09-25T07:02:14.252Z,1005.25
2022-09-25T07:02:54.801Z,1005.27
2022-09-25T07:03:35.212Z,1005.25
2022-09-25T07:04:15.670Z,1005.26
2022-09-25T07:04:56.150Z,1005.23
2022-09-25T07:05:36.611Z,1005.3
2022-09-25T07:06:17.144Z,1005.28
2022-09-25T07:06:57.583Z,1005.29
2022-09-25T07:07:38.145Z,1005.22
2022-09-25T07:08:18.617Z,1005.27
2022-09-25T07:09:39.571Z,1005.25
2022-09-25T07:10:20.042Z,1005.28
2022-09-25T07:11:00.499Z,1005.31
2022-09-25T07:11:40.991Z,1005.3
2022-09-25T07:12:21.472Z,1005.3
2022-09-25T07:13:01.971Z,1005.28
2022-09-25T07:13:42.464Z,1005.28
2022-09-25T07:14:22.926Z,1005.3
2022-09-25T07:15:03.469Z,1005.26
2022-09-25T07:15:43.978Z,1005.26
2022-09-25T07:16:24.442Z,1005.3
2022-09-25T07:17:04.856Z,1005.28
2022-09-25T07:17:45.390Z,1005.35
2022-09-25T07:18:25.921Z,1005.31
2022-09-25T07:19:06.401Z,1005.31
2022-09-25T07:19:46.923Z,1005.32
2022-09-25T07:22:00.298Z,1005.31
2022-09-25T07:24:14.303Z,1005.36
2022-09-25T07:24:54.966Z,1005.34
2022-09-25T07:25:35.528Z,1005.37
2022-09-25T07:26:16.000Z,1005.35
2022-09-25T07:26:56.511Z,1005.35
2022-09-25T07:27:37.031Z,1005.35
2022-09-25T07:28:17.494Z,1005.34
2022-09-25T07:28:57.972Z,1005.36
2022-09-25T07:29:38.538Z,1005.33
2022-09-25T07:30:19.043Z,1005.36
2022-09-25T07:30:59.512Z,1005.36
2022-09-25T07:31:40.362Z,1005.31
2022-09-25T07:32:20.442Z,1005.36
2022-09-25T07:33:00.976Z,1005.35
2022-09-25T07:33:41.511Z,1005.34
2022-09-25T07:34:21.969Z,1005.38
2022-09-25T07:35:02.475Z,1005.32
2022-09-25T07:35:42.923Z,1005.3
2022-09-25T07:36:23.407Z,1005.35
2022-09-25T07:37:03.946Z,1005.31
2022-09-25T07:37:44.477Z,1005.29
2022-09-25T07:38:24.965Z,1005.33
2022-09-25T07:39:05.448Z,1005.35
2022-09-25T07:39:45.937Z,1005.33
2022-09-25T07:40:26.516Z,1005.32
2022-09-25T07:41:06.931Z,1005.34
2022-09-25T07:41:47.435Z,1005.29
2022-09-25T07:42:27.927Z,1005.31
2022-09-25T07:43:08.405Z,1005.27
2022-09-25T07:43:48.918Z,1005.3
2022-09-25T07:44:33.604Z,1005.34
2022-09-25T07:45:09.912Z,1005.35
2022-09-25T07:45:50.684Z,1005.31
2022-09-25T07:46:31.162Z,1005.31
2022-09-25T07:47:12.170Z,1005.31
2022-09-25T07:47:52.622Z,1005.35
2022-09-25T07:48:33.079Z,1005.32
2022-09-25T07:49:13.595Z,1005.35
2022-09-25T07:49:54.081Z,1005.35
2022-09-25T07:50:34.518Z,1005.32
2022-09-25T07:51:15.019Z,1005.34
2022-09-25T07:51:55.468Z,1005.38
2022-09-25T07:52:35.998Z,1005.33
2022-09-25T07:53:16.423Z,1005.32
2022-09-25T07:53:56.884Z,1005.35
2022-09-25T07:54:37.411Z,1005.32
2022-09-25T07:55:17.964Z,1005.32
2022-09-25T07:56:02.275Z,1005.34
2022-09-25T07:56:39.011Z,1005.36
2022-09-25T07:57:19.531Z,1005.37
2022-09-25T07:58:00.014Z,1005.38
2022-09-25T07:58:40.468Z,1005.37
2022-09-25T07:59:20.996Z,1005.36
2022-09-25T08:00:01.448Z,1005.37
2022-09-25T08:00:41.910Z,1005.38
2022-09-25T08:01:22.397Z,1005.31
2022-09-25T08:02:02.886Z,1005.37
2022-09-25T08:02:43.411Z,1005.39
2022-09-25T08:03:23.881Z,1005.3
2022-09-25T08:04:04.419Z,1005.33
2022-09-25T08:04:44.845Z,1005.34
2022-09-25T08:05:25.375Z,1005.33
2022-09-25T08:06:05.886Z,1005.3
2022-09-25T08:06:46.419Z,1005.32
2022-09-25T08:08:07.433Z,1005.38
2022-09-25T08:08:47.919Z,1005.38
2022-09-25T08:09:28.404Z,1005.35
2022-09-25T08:10:08.905Z,1005.39
2022-09-25T08:10:49.408Z,1005.36
2022-09-25T08:11:29.879Z,1005.4
2022-09-25T08:12:10.340Z,1005.39
2022-09-25T08:12:50.840Z,1005.39
2022-09-25T08:13:31.337Z,1005.44
2022-09-25T08:14:11.862Z,1005.4
2022-09-25T08:14:52.358Z,1005.37
2022-09-25T08:15:32.912Z,1005.39
2022-09-25T08:16:13.574Z,1005.4
2022-09-25T08:16:53.832Z,1005.41
2022-09-25T08:17:34.298Z,1005.43
2022-09-25T08:18:14.806Z,1005.42
2022-09-25T08:18:55.231Z,1005.4
2022-09-25T08:19:35.759Z,1005.38
2022-09-25T08:20:16.230Z,1005.39
2022-09-25T08:20:56.696Z,1005.39
2022-09-25T08:21:37.216Z,1005.41
2022-09-25T08:22:58.172Z,1005.39
2022-09-25T08:23:38.660Z,1005.39
2022-09-25T08:24:19.206Z,1005.43
2022-09-25T08:24:59.682Z,1005.42
2022-09-25T08:25:40.192Z,1005.4
2022-09-25T08:26:20.711Z,1005.38
2022-09-25T08:27:01.207Z,1005.4
2022-09-25T08:27:41.711Z,1005.41
2022-09-25T08:28:22.189Z,1005.41
2022-09-25T08:29:02.678Z,1005.41
2022-09-25T08:30:23.685Z,1005.41
2022-09-25T08:31:04.205Z,1005.44
2022-09-25T08:31:44.737Z,1005.46
2022-09-25T08:32:25.206Z,1005.48
2022-09-25T08:33:05.688Z,1005.48
2022-09-25T08:33:46.169Z,1005.47
2022-09-25T08:34:42.228Z,1005.47
2022-09-25T08:35:07.196Z,1005.45
2022-09-25T08:35:47.762Z,1005.43
2022-09-25T08:36:28.201Z,1005.46
2022-09-25T08:37:08.723Z,1005.5
2022-09-25T08:37:49.190Z,1005.45
2022-09-25T08:38:29.654Z,1005.5
2022-09-25T08:39:10.134Z,1005.48
2022-09-25T08:39:50.632Z,1005.52
2022-09-25T08:40:31.231Z,1005.54
2022-09-25T08:41:11.595Z,1005.52
2022-09-25T08:41:52.087Z,1005.5
2022-09-25T08:42:32.559Z,1005.5
2022-09-25T08:43:13.145Z,1005.51
2022-09-25T08:43:53.552Z,1005.48
2022-09-25T08:44:34.034Z,1005.5
2022-09-25T08:45:21.369Z,1005.48
2022-09-25T08:45:55.070Z,1005.49
2022-09-25T08:46:35.556Z,1005.55
2022-09-25T08:47:19.405Z,1005.41
2022-09-25T08:47:56.467Z,1005.55
2022-09-25T08:48:36.989Z,1005.59
2022-09-25T08:49:17.446Z,1005.55
2022-09-25T08:49:58.075Z,1005.58
2022-09-25T08:51:18.980Z,1005.54
2022-09-25T08:51:59.464Z,1005.57
2022-09-25T08:52:39.949Z,1005.59
2022-09-25T08:54:01.736Z,1005.6
2022-09-25T08:54:43.553Z,1005.56
2022-09-25T08:55:22.857Z,1005.58
2022-09-25T08:56:03.353Z,1005.56
2022-09-25T08:56:43.791Z,1005.57
2022-09-25T08:57:24.269Z,1005.55
2022-09-25T08:58:04.806Z,1005.55
2022-09-25T08:59:26.006Z,1005.53
2022-09-25T09:00:06.453Z,1005.51
2022-09-25T09:00:46.934Z,1005.5
2022-09-25T09:01:27.471Z,1005.5
2022-09-25T09:02:08.068Z,1005.53
2022-09-25T09:02:48.575Z,1005.46
2022-09-25T09:03:29.029Z,1005.49
2022-09-25T09:04:09.708Z,1005.46
2022-09-25T09:04:50.013Z,1005.51
2022-09-25T09:05:31.402Z,1005.52
2022-09-25T09:06:11.925Z,1005.55
2022-09-25T09:07:02.403Z,1005.51
2022-09-25T09:07:32.942Z,1005.55
2022-09-25T09:08:13.451Z,1005.56
2022-09-25T09:08:53.921Z,1005.56
2022-09-25T09:09:34.471Z,1005.59
2022-09-25T09:10:14.963Z,1005.53
2022-09-25T09:10:55.469Z,1005.57
2022-09-25T09:11:35.910Z,1005.56
2022-09-25T09:12:16.474Z,1005.52
2022-09-25T09:12:56.987Z,1005.55
2022-09-25T09:13:37.505Z,1005.5
2022-09-25T09:14:18.015Z,1005.55
2022-09-25T09:14:58.657Z,1005.63
2022-09-25T09:15:39.153Z,1005.59
2022-09-25T09:16:19.675Z,1005.59
2022-09-25T09:17:00.117Z,1005.6
2022-09-25T09:17:40.576Z,1005.58
2022-09-25T09:18:21.103Z,1005.56
2022-09-25T09:19:01.633Z,1005.56
2022-09-25T09:19:42.133Z,1005.58
2022-09-25T09:20:22.694Z,1005.59
2022-09-25T09:21:03.144Z,1005.55
2022-09-25T09:21:43.694Z,1005.56
2022-09-25T09:22:24.240Z,1005.57
2022-09-25T09:23:04.688Z,1005.6
2022-09-25T09:23:45.176Z,1005.58
2022-09-25T09:24:25.668Z,1005.6
2022-09-25T09:25:06.243Z,1005.62
2022-09-25T09:25:46.797Z,1005.55
2022-09-25T09:26:27.314Z,1005.59
2022-09-25T09:29:43.813Z,1005.6
2022-09-25T09:30:33.511Z,1005.61
2022-09-25T09:32:50.262Z,1005.52
2022-09-25T09:33:31.184Z,1005.54
2022-09-25T09:34:11.718Z,1005.6
2022-09-25T09:35:05.530Z,1005.58
2022-09-25T09:35:33.940Z,1005.57
2022-09-25T09:36:13.308Z,1005.53
2022-09-25T09:36:53.830Z,1005.58
2022-09-25T09:37:34.299Z,1005.55
2022-09-25T09:38:14.856Z,1005.51
2022-09-25T09:38:55.349Z,1005.51
2022-09-25T09:39:35.800Z,1005.51
2022-09-25T09:40:16.325Z,1005.48
2022-09-25T09:40:56.881Z,1005.51
2022-09-25T09:41:37.349Z,1005.5
2022-09-25T09:42:17.824Z,1005.5
2022-09-25T09:42:58.336Z,1005.54
2022-09-25T09:43:38.814Z,1005.54
2022-09-25T09:44:19.351Z,1005.54
2022-09-25T09:44:59.766Z,1005.55
2022-09-25T09:45:40.303Z,1005.55
2022-09-25T09:46:20.814Z,1005.55
2022-09-25T09:47:01.285Z,1005.53
2022-09-25T09:47:41.821Z,1005.58
2022-09-25T09:48:22.266Z,1005.58
2022-09-25T09:49:02.776Z,1005.57
2022-09-25T09:49:43.256Z,1005.58
2022-09-25T09:50:24.193Z,1005.53
2022-09-25T09:51:04.633Z,1005.51
2022-09-25T09:52:25.572Z,1005.52
2022-09-25T09:53:06.182Z,1005.57
2022-09-25T09:53:46.558Z,1005.47
2022-09-25T09:54:27.078Z,1005.49
2022-09-25T09:55:07.574Z,1005.46
2022-09-25T09:55:48.077Z,1005.46
2022-09-25T09:56:28.590Z,1005.49
2022-09-25T09:57:09.098Z,1005.45
2022-09-25T09:57:49.576Z,1005.44
2022-09-25T09:58:30.083Z,1005.42
2022-09-25T09:59:10.588Z,1005.44
2022-09-25T09:59:51.135Z,1005.42
2022-09-25T10:00:31.567Z,1005.38
2022-09-25T10:01:29.355Z,1005.38